Time;durP1;ratioP1;P1;durP2;ratioP2;P2;SDS_P1;SDS_P2;PMS_P1;PMS_P2;Temp;Humidity;BMP_temperature;BMP_pressure;BME280_temperature;BME280_humidity;BME280_pressure;Samples;Min_cycle;Max_cycle;Signal;HPM_P1;HPM_P2
2023/07/26 00:01:20;;;;;;;4.10;3.05;;;15.10;96.20;;;;;;4859490;29;20046;-56
2023/07/26 00:03:47;;;;;;;6.70;3.00;;;15.00;96.40;;;;;;4860782;29;20046;-55
2023/07/26 00:06:14;;;;;;;6.47;3.42;;;14.90;96.60;;;;;;4860799;29;20041;-56
2023/07/26 00:08:40;;;;;;;6.28;3.30;;;14.90;96.70;;;;;;4862343;29;20037;-56
2023/07/26 00:11:07;;;;;;;4.85;3.03;;;14.80;96.80;;;;;;4864799;29;20045;-56
2023/07/26 00:13:34;;;;;;;5.53;3.20;;;14.70;97.00;;;;;;4864067;29;20060;-57
2023/07/26 00:16:01;;;;;;;4.30;3.00;;;14.70;97.10;;;;;;4864068;29;20045;-56
2023/07/26 00:18:28;;;;;;;4.82;3.00;;;14.70;97.10;;;;;;4864176;29;20046;-56
2023/07/26 00:20:54;;;;;;;4.20;2.80;;;14.70;97.10;;;;;;4864275;29;20108;-56
2023/07/26 00:23:21;;;;;;;6.03;3.03;;;14.70;97.00;;;;;;4864605;29;20060;-58
2023/07/26 00:25:48;;;;;;;5.68;3.20;;;14.60;97.30;;;;;;4864576;29;20121;-58
2023/07/26 00:28:15;;;;;;;5.38;3.00;;;14.60;97.20;;;;;;4862697;29;20046;-57
2023/07/26 00:30:43;;;;;;;6.43;3.22;;;14.50;97.30;;;;;;4864020;29;20044;-54
2023/07/26 00:33:10;;;;;;;4.53;3.25;;;14.50;97.20;;;;;;4862080;29;20076;-56
2023/07/26 00:35:37;;;;;;;7.72;3.15;;;14.40;97.40;;;;;;4863444;29;20050;-50
2023/07/26 00:38:04;;;;;;;7.30;2.88;;;14.40;97.60;;;;;;4862390;29;20060;-53
2023/07/26 00:40:31;;;;;;;6.15;3.17;;;14.30;97.80;;;;;;4847071;29;20053;-50
2023/07/26 00:42:57;;;;;;;5.05;3.03;;;14.20;97.80;;;;;;4862510;29;20042;-53
2023/07/26 00:45:24;;;;;;;4.10;2.70;;;14.20;97.90;;;;;;4862409;29;20068;-51
2023/07/26 00:47:51;;;;;;;8.88;3.10;;;14.10;97.90;;;;;;4863474;29;20041;-56
2023/07/26 00:50:18;;;;;;;5.90;3.20;;;14.10;97.90;;;;;;4863516;29;20084;-53
2023/07/26 00:52:46;;;;;;;5.60;2.90;;;14.10;97.90;;;;;;4863182;29;20046;-53
2023/07/26 00:55:14;;;;;;;5.43;3.13;;;14.00;98.10;;;;;;4846808;29;20066;-54
2023/07/26 00:57:41;;;;;;;3.97;2.97;;;14.00;98.20;;;;;;4863354;29;20056;-55
2023/07/26 01:00:08;;;;;;;5.10;3.05;;;14.00;98.50;;;;;;4863333;29;20109;-51
2023/07/26 01:02:34;;;;;;;5.32;3.10;;;13.90;98.30;;;;;;4863231;29;20132;-56
2023/07/26 01:05:01;;;;;;;5.05;3.20;;;13.90;98.40;;;;;;4863235;29;20052;-51
2023/07/26 01:07:28;;;;;;;5.22;2.90;;;13.90;98.40;;;;;;4863151;29;20046;-51
2023/07/26 01:09:55;;;;;;;6.30;2.90;;;13.90;98.30;;;;;;4861792;29;20501;-53
2023/07/26 01:12:22;;;;;;;4.22;3.10;;;13.90;98.40;;;;;;4863136;29;20060;-53
2023/07/26 01:14:49;;;;;;;4.43;3.00;;;13.90;98.50;;;;;;4863084;29;20081;-50
2023/07/26 01:17:15;;;;;;;6.35;2.90;;;13.90;98.60;;;;;;4861698;29;20084;-51
2023/07/26 01:19:42;;;;;;;5.30;2.80;;;13.80;98.60;;;;;;4860408;29;20148;-54
2023/07/26 01:22:09;;;;;;;3.63;2.90;;;13.80;98.50;;;;;;4846231;29;20047;-54
2023/07/26 01:24:37;;;;;;;4.72;2.95;;;13.80;98.60;;;;;;4862878;29;20056;-51
2023/07/26 01:27:04;;;;;;;4.78;2.97;;;13.70;98.80;;;;;;4863343;29;20053;-50
2023/07/26 01:29:30;;;;;;;3.72;2.75;;;13.70;98.90;;;;;;4861995;29;20046;-50
2023/07/26 01:31:57;;;;;;;5.68;2.92;;;13.70;99.00;;;;;;4863081;29;20084;-54
2023/07/26 01:34:24;;;;;;;3.72;2.42;;;13.70;99.00;;;;;;4863017;29;20049;-53
2023/07/26 01:36:52;;;;;;;4.32;2.80;;;13.60;99.10;;;;;;4861910;29;20050;-52
2023/07/26 01:39:19;;;;;;;4.00;2.88;;;13.60;99.10;;;;;;4862821;29;20080;-51
2023/07/26 01:41:46;;;;;;;4.32;3.20;;;13.60;99.10;;;;;;4861734;29;20081;-48
2023/07/26 01:44:13;;;;;;;4.55;2.90;;;13.60;99.20;;;;;;4861925;29;20144;-51
2023/07/26 01:46:40;;;;;;;5.47;3.00;;;13.60;99.30;;;;;;4846491;29;20125;-56
2023/07/26 01:49:07;;;;;;;4.38;2.45;;;13.50;99.40;;;;;;4862717;29;20033;-53
2023/07/26 01:51:33;;;;;;;6.53;3.40;;;13.50;99.50;;;;;;4863099;29;20141;-51
2023/07/26 01:54:02;;;;;;;5.30;2.95;;;13.50;99.40;;;;;;4862529;29;20489;-56
2023/07/26 01:56:28;;;;;;;5.05;2.80;;;13.50;99.60;;;;;;4862861;29;20052;-54
2023/07/26 01:58:55;;;;;;;5.35;2.92;;;13.40;99.70;;;;;;4861052;29;20084;-49
2023/07/26 02:01:22;;;;;;;5.78;3.03;;;13.40;99.90;;;;;;4845440;29;20056;-49
2023/07/26 02:03:49;;;;;;;5.03;3.22;;;13.40;99.90;;;;;;4861594;29;20046;-51
2023/07/26 02:06:16;;;;;;;3.50;2.70;;;13.30;99.90;;;;;;4861291;29;20045;-51
2023/07/26 02:08:44;;;;;;;5.18;3.22;;;13.30;99.90;;;;;;4860944;29;20045;-48
2023/07/26 02:11:11;;;;;;;6.80;2.97;;;13.30;99.90;;;;;;4861063;29;20047;-55
2023/07/26 02:13:38;;;;;;;5.05;3.30;;;13.20;99.90;;;;;;4861283;29;20046;-52
2023/07/26 02:16:05;;;;;;;6.43;3.22;;;13.10;99.90;;;;;;4860965;29;20136;-54
2023/07/26 02:18:32;;;;;;;5.25;3.17;;;13.10;99.90;;;;;;4862168;29;20069;-51
2023/07/26 02:20:59;;;;;;;5.93;3.42;;;13.10;99.90;;;;;;4862037;29;20141;-53
2023/07/26 02:23:26;;;;;;;5.72;2.95;;;13.10;99.90;;;;;;4860776;29;20140;-53
2023/07/26 02:25:52;;;;;;;5.10;3.40;;;13.10;99.90;;;;;;4860726;29;20091;-55
2023/07/26 02:28:20;;;;;;;5.32;3.13;;;13.00;99.90;;;;;;4860611;29;20046;-47
2023/07/26 02:30:47;;;;;;;4.88;3.30;;;13.00;99.90;;;;;;4860329;29;20102;-48
2023/07/26 02:33:13;;;;;;;6.78;3.42;;;13.00;99.90;;;;;;4860565;29;20367;-47
2023/07/26 02:35:40;;;;;;;5.10;3.00;;;12.90;99.90;;;;;;4860754;29;20402;-51
2023/07/26 02:38:07;;;;;;;4.32;2.90;;;12.90;99.90;;;;;;4861563;29;20124;-47
2023/07/26 02:40:34;;;;;;;6.18;3.28;;;12.90;99.90;;;;;;4861781;29;20056;-47
2023/07/26 02:43:01;;;;;;;4.93;3.08;;;12.90;99.90;;;;;;4861547;29;20080;-49
2023/07/26 02:45:28;;;;;;;5.28;3.30;;;12.80;99.90;;;;;;4860345;29;20153;-47
2023/07/26 02:47:55;;;;;;;3.75;2.55;;;12.80;99.90;;;;;;4861438;29;20117;-48
2023/07/26 02:50:22;;;;;;;5.28;3.00;;;12.80;99.90;;;;;;4860585;29;20132;-48
2023/07/26 02:52:49;;;;;;;4.25;2.80;;;12.70;99.90;;;;;;4860512;29;20049;-48
2023/07/26 02:55:15;;;;;;;6.00;3.10;;;12.70;99.90;;;;;;4861604;29;20041;-49
2023/07/26 02:57:42;;;;;;;5.90;3.00;;;12.70;99.90;;;;;;4860900;29;20045;-49
2023/07/26 03:00:09;;;;;;;4.93;2.97;;;12.70;99.90;;;;;;4860565;29;20128;-49
2023/07/26 03:02:36;;;;;;;4.70;2.95;;;12.60;99.90;;;;;;4861433;29;20045;-49
2023/07/26 03:05:03;;;;;;;4.38;2.85;;;12.60;99.90;;;;;;4861747;29;20046;-47
2023/07/26 03:07:30;;;;;;;5.05;3.20;;;12.60;99.90;;;;;;4860421;29;20050;-47
2023/07/26 03:09:56;;;;;;;4.63;2.97;;;12.50;99.90;;;;;;4861417;29;20046;-49
2023/07/26 03:12:23;;;;;;;5.22;3.72;;;12.50;99.90;;;;;;4859998;29;20057;-53
2023/07/26 03:14:50;;;;;;;5.07;2.90;;;12.50;99.90;;;;;;4860331;29;20081;-54
2023/07/26 03:17:17;;;;;;;8.82;3.15;;;12.40;99.90;;;;;;4860075;29;20473;-47
2023/07/26 03:19:49;;;;;;;6.32;3.17;;;12.40;99.90;;;;;;4861283;29;20134;-48
2023/07/26 03:22:15;;;;;;;4.82;3.30;;;12.40;99.90;;;;;;4844375;29;20386;-50
2023/07/26 03:24:42;;;;;;;5.63;3.10;;;12.40;99.90;;;;;;4861045;29;20049;-48
2023/07/26 03:27:09;;;;;;;5.43;3.17;;;12.40;99.90;;;;;;4861201;29;20061;-47
2023/07/26 03:29:36;;;;;;;3.90;2.90;;;12.40;99.90;;;;;;4861118;29;20128;-51
2023/07/26 03:32:03;;;;;;;4.05;2.90;;;12.30;99.90;;;;;;4861248;29;20124;-48
2023/07/26 03:34:30;;;;;;;4.63;2.90;;;12.30;99.90;;;;;;4861295;29;20076;-53
2023/07/26 03:36:57;;;;;;;5.85;3.08;;;12.30;99.90;;;;;;4861308;29;20053;-49
2023/07/26 03:39:24;;;;;;;5.13;3.17;;;12.20;99.90;;;;;;4860163;29;20468;-51
2023/07/26 03:41:52;;;;;;;5.68;3.40;;;12.20;99.90;;;;;;4861324;29;20045;-50
2023/07/26 03:44:19;;;;;;;5.07;3.10;;;12.20;99.90;;;;;;4863675;29;20053;-47
2023/07/26 03:46:48;;;;;;;5.07;3.17;;;12.20;99.90;;;;;;4864882;29;20072;-47
2023/07/26 03:49:15;;;;;;;3.70;3.17;;;12.20;99.90;;;;;;4864691;29;20497;-52
2023/07/26 03:51:42;;;;;;;7.78;3.22;;;12.10;99.90;;;;;;4865090;29;20492;-50
2023/07/26 03:54:08;;;;;;;5.75;3.30;;;12.10;99.90;;;;;;4864945;29;20037;-48
2023/07/26 03:56:35;;;;;;;7.90;3.25;;;12.10;99.90;;;;;;4863357;29;20054;-49
2023/07/26 03:59:02;;;;;;;8.20;3.13;;;12.10;99.90;;;;;;4863405;29;20049;-50
2023/07/26 04:01:29;;;;;;;5.32;3.20;;;12.10;99.90;;;;;;4863467;29;20060;-48
2023/07/26 04:03:56;;;;;;;7.38;3.40;;;12.00;99.90;;;;;;4847998;29;20041;-49
2023/07/26 04:06:23;;;;;;;7.53;3.70;;;12.00;99.90;;;;;;4863679;29;20045;-49
2023/07/26 04:08:50;;;;;;;5.68;3.10;;;12.00;99.90;;;;;;4863235;29;20076;-49
2023/07/26 04:11:17;;;;;;;7.57;3.15;;;12.00;99.90;;;;;;4863177;29;20153;-49
2023/07/26 04:13:44;;;;;;;4.72;3.22;;;12.00;99.90;;;;;;4864616;29;20132;-46
2023/07/26 04:16:10;;;;;;;5.32;3.47;;;12.00;99.90;;;;;;4864455;29;20053;-47
2023/07/26 04:18:37;;;;;;;5.93;3.20;;;11.90;99.90;;;;;;4864323;29;20108;-48
2023/07/26 04:21:04;;;;;;;5.55;3.25;;;12.00;99.90;;;;;;4847362;29;20531;-51
2023/07/26 04:23:31;;;;;;;4.88;3.20;;;11.90;99.90;;;;;;4863472;29;20048;-55
2023/07/26 04:25:58;;;;;;;4.93;3.47;;;11.90;99.90;;;;;;4862936;29;20050;-47
2023/07/26 04:28:25;;;;;;;4.93;3.22;;;11.90;99.90;;;;;;4863186;29;20113;-50
2023/07/26 04:30:52;;;;;;;4.82;3.25;;;11.90;99.90;;;;;;4864473;29;20049;-52
2023/07/26 04:33:20;;;;;;;6.70;3.30;;;11.90;99.90;;;;;;4864258;29;20041;-52
2023/07/26 04:35:47;;;;;;;4.78;3.20;;;11.90;99.90;;;;;;4864184;29;20489;-51
2023/07/26 04:38:14;;;;;;;4.75;3.30;;;12.00;99.90;;;;;;4864237;29;20413;-52
2023/07/26 04:40:41;;;;;;;4.78;3.33;;;12.00;99.90;;;;;;4863930;29;20413;-54
2023/07/26 04:43:09;;;;;;;4.75;3.17;;;12.00;99.90;;;;;;4863980;29;20425;-47
2023/07/26 04:45:36;;;;;;;3.85;2.88;;;12.00;99.90;;;;;;4863870;29;20425;-47
2023/07/26 04:48:03;;;;;;;4.63;3.40;;;12.00;99.90;;;;;;4864259;29;20049;-51
2023/07/26 04:50:29;;;;;;;4.60;3.38;;;12.00;99.90;;;;;;4863947;29;20089;-51
2023/07/26 04:52:56;;;;;;;5.97;3.53;;;12.00;99.90;;;;;;4864174;29;20068;-49
2023/07/26 04:55:23;;;;;;;5.28;3.38;;;12.10;99.90;;;;;;4863931;29;20045;-48
2023/07/26 04:57:50;;;;;;;4.93;3.03;;;12.10;99.90;;;;;;4862723;29;20117;-49
2023/07/26 05:00:17;;;;;;;6.53;3.50;;;12.20;99.90;;;;;;4862561;29;20109;-47
2023/07/26 05:02:44;;;;;;;5.20;3.47;;;12.30;99.90;;;;;;4863982;29;20045;-55
2023/07/26 05:05:10;;;;;;;5.05;3.45;;;12.30;99.90;;;;;;4863862;29;20045;-51
2023/07/26 05:07:37;;;;;;;5.38;3.08;;;12.40;99.90;;;;;;4863815;29;20473;-50
2023/07/26 05:10:04;;;;;;;7.38;3.00;;;12.40;99.90;;;;;;4863643;29;20049;-53
2023/07/26 05:12:31;;;;;;;4.88;3.13;;;12.50;99.90;;;;;;4863548;29;20049;-47
2023/07/26 05:14:58;;;;;;;4.85;3.00;;;12.50;99.90;;;;;;4864044;29;20053;-51
2023/07/26 05:17:24;;;;;;;4.70;3.40;;;12.60;99.90;;;;;;4863502;29;20041;-49
2023/07/26 05:19:51;;;;;;;5.10;3.22;;;12.70;99.90;;;;;;4863035;29;20466;-53
2023/07/26 05:22:18;;;;;;;4.15;2.78;;;12.80;99.90;;;;;;4863599;29;20053;-52
2023/07/26 05:24:45;;;;;;;6.30;3.30;;;12.90;99.90;;;;;;4863395;29;20038;-53
2023/07/26 05:27:12;;;;;;;3.60;2.85;;;12.90;99.90;;;;;;4863476;29;20045;-51
2023/07/26 05:29:38;;;;;;;5.88;3.30;;;13.00;99.90;;;;;;4863446;29;20061;-54
2023/07/26 05:32:05;;;;;;;4.22;2.97;;;13.10;99.90;;;;;;4863200;29;20102;-49
2023/07/26 05:34:32;;;;;;;5.25;3.22;;;13.20;99.90;;;;;;4863609;29;20490;-52
2023/07/26 05:36:59;;;;;;;6.07;3.08;;;13.30;99.90;;;;;;4863437;29;20077;-53
2023/07/26 05:39:26;;;;;;;5.78;2.60;;;13.40;99.90;;;;;;4863005;29;20556;-54
2023/07/26 05:41:52;;;;;;;6.70;3.10;;;13.50;99.90;;;;;;4863159;29;20106;-52
2023/07/26 05:44:19;;;;;;;5.65;2.97;;;13.50;99.90;;;;;;4863136;29;20046;-55
2023/07/26 05:46:46;;;;;;;5.65;2.88;;;13.60;99.90;;;;;;4862219;29;20045;-54
2023/07/26 05:49:13;;;;;;;5.50;2.67;;;13.70;99.90;;;;;;4863017;29;20105;-55
2023/07/26 05:51:40;;;;;;;6.28;2.63;;;13.80;99.90;;;;;;4861806;29;20044;-54
2023/07/26 05:54:06;;;;;;;5.18;3.00;;;14.00;99.90;;;;;;4861719;29;20106;-51
2023/07/26 05:56:33;;;;;;;4.50;2.55;;;14.10;99.90;;;;;;4863327;29;20493;-56
2023/07/26 05:59:00;;;;;;;5.68;3.20;;;14.20;99.90;;;;;;4861497;29;20151;-51
2023/07/26 06:01:27;;;;;;;5.50;3.20;;;14.30;99.90;;;;;;4862872;29;20053;-56
2023/07/26 06:03:54;;;;;;;5.50;3.08;;;14.30;99.90;;;;;;4862421;29;20045;-55
2023/07/26 06:06:20;;;;;;;4.60;2.72;;;14.40;99.90;;;;;;4861869;29;20454;-54
2023/07/26 06:08:47;;;;;;;3.75;2.72;;;14.40;99.90;;;;;;4862246;29;20037;-56
2023/07/26 06:11:14;;;;;;;5.95;2.83;;;14.30;99.90;;;;;;4861704;29;20374;-52
2023/07/26 06:13:41;;;;;;;4.50;2.97;;;14.30;99.90;;;;;;4862773;29;20041;-50
2023/07/26 06:16:08;;;;;;;5.60;3.20;;;14.20;99.90;;;;;;4862549;29;20465;-52
2023/07/26 06:18:35;;;;;;;8.23;3.10;;;14.20;99.90;;;;;;4862624;29;20110;-51
2023/07/26 06:21:01;;;;;;;5.57;3.28;;;14.20;99.90;;;;;;4862454;29;20057;-50
2023/07/26 06:23:28;;;;;;;5.18;2.80;;;14.20;99.90;;;;;;4862496;29;20481;-51
2023/07/26 06:25:55;;;;;;;4.20;2.70;;;14.30;99.90;;;;;;4862450;29;20038;-50
2023/07/26 06:28:22;;;;;;;8.25;3.45;;;14.30;99.90;;;;;;4862303;29;20084;-52
2023/07/26 06:30:48;;;;;;;4.57;3.28;;;14.30;99.90;;;;;;4862646;29;20041;-53
2023/07/26 06:33:15;;;;;;;5.65;2.78;;;14.40;99.90;;;;;;4862220;29;20045;-53
2023/07/26 06:35:42;;;;;;;5.05;3.10;;;14.40;99.90;;;;;;4862544;29;20430;-52
2023/07/26 06:38:09;;;;;;;5.78;3.25;;;14.40;99.90;;;;;;4861767;29;20121;-50
2023/07/26 06:40:36;;;;;;;6.15;3.30;;;14.50;99.90;;;;;;4862380;29;20057;-51
2023/07/26 06:43:03;;;;;;;4.60;2.80;;;14.50;99.90;;;;;;4860182;29;20041;-48
2023/07/26 06:45:30;;;;;;;5.85;3.08;;;14.60;99.90;;;;;;4862014;29;20060;-52
2023/07/26 06:47:56;;;;;;;7.00;3.30;;;14.60;99.90;;;;;;4861605;29;20121;-48
2023/07/26 06:50:23;;;;;;;5.15;3.25;;;14.70;99.90;;;;;;4861578;29;20049;-50
2023/07/26 06:52:50;;;;;;;5.88;3.00;;;14.70;99.90;;;;;;4861962;29;20053;-53
2023/07/26 06:55:17;;;;;;;4.80;2.92;;;14.70;99.90;;;;;;4862051;29;20045;-51
2023/07/26 06:57:44;;;;;;;6.15;2.88;;;14.80;99.90;;;;;;4861445;29;20056;-54
2023/07/26 07:00:12;;;;;;;5.47;3.33;;;14.80;99.90;;;;;;4861808;29;20600;-50
2023/07/26 07:02:39;;;;;;;3.47;2.40;;;14.90;99.90;;;;;;4861681;29;20094;-53
2023/07/26 07:05:06;;;;;;;5.70;2.90;;;14.90;99.90;;;;;;4860205;29;20075;-49
2023/07/26 07:07:33;;;;;;;9.55;3.42;;;15.00;99.90;;;;;;4859608;29;20052;-51
2023/07/26 07:10:00;;;;;;;5.70;3.10;;;15.00;99.90;;;;;;4861056;29;20049;-50
2023/07/26 07:12:26;;;;;;;5.53;3.03;;;15.10;99.90;;;;;;4861109;29;20508;-49
2023/07/26 07:14:53;;;;;;;6.20;3.00;;;15.10;99.90;;;;;;4861079;29;20041;-50
2023/07/26 07:17:20;;;;;;;4.82;3.10;;;15.20;99.90;;;;;;4860782;29;20045;-51
2023/07/26 07:19:47;;;;;;;7.47;3.75;;;15.20;99.90;;;;;;4860436;29;20061;-54
2023/07/26 07:22:14;;;;;;;7.75;3.60;;;15.30;99.90;;;;;;4860750;29;20548;-51
2023/07/26 07:24:41;;;;;;;5.35;3.25;;;15.30;99.90;;;;;;4860787;29;20044;-56
2023/07/26 07:27:08;;;;;;;6.95;3.17;;;15.40;99.90;;;;;;4861083;29;20045;-50
2023/07/26 07:29:35;;;;;;;4.90;3.17;;;15.40;99.90;;;;;;4860162;29;20037;-48
2023/07/26 07:32:04;;;;;;;5.07;3.15;;;15.50;99.90;;;;;;4859752;29;20046;-52
2023/07/26 07:34:46;;;;;;;6.38;3.40;;;15.60;99.90;;;;;;4861107;29;20053;-50
2023/07/26 07:37:13;;;;;;;4.78;3.30;;;15.70;99.90;;;;;;4860869;29;20528;-48
2023/07/26 07:39:40;;;;;;;5.65;3.20;;;15.70;99.90;;;;;;4860945;29;20452;-52
2023/07/26 07:42:07;;;;;;;6.53;3.40;;;15.80;99.90;;;;;;4860771;29;20106;-49
2023/07/26 07:44:34;;;;;;;4.07;2.72;;;15.80;99.90;;;;;;4861053;29;20370;-49
2023/07/26 07:47:00;;;;;;;4.75;2.92;;;15.90;99.90;;;;;;4861110;29;20038;-50
2023/07/26 07:49:31;;;;;;;4.40;2.33;;;16.00;99.90;;;;;;4861096;29;20102;-49
2023/07/26 07:51:58;;;;;;;5.50;2.97;;;16.00;99.90;;;;;;4860924;29;20037;-52
2023/07/26 07:54:25;;;;;;;4.57;2.47;;;16.10;99.70;;;;;;4860720;29;20069;-50
2023/07/26 07:56:52;;;;;;;4.60;2.30;;;16.20;99.60;;;;;;4860956;29;20049;-51
2023/07/26 07:59:18;;;;;;;4.65;2.58;;;16.30;99.40;;;;;;4860415;29;20462;-48
2023/07/26 08:01:45;;;;;;;4.38;2.13;;;16.40;98.90;;;;;;4860833;29;20132;-48
2023/07/26 08:04:12;;;;;;;4.25;2.65;;;16.40;98.30;;;;;;4860348;29;20506;-49
2023/07/26 08:06:39;;;;;;;5.13;2.63;;;16.50;98.70;;;;;;4859846;29;20034;-47
2023/07/26 08:09:06;;;;;;;3.88;2.22;;;16.60;98.50;;;;;;4859275;29;20144;-47
2023/07/26 08:11:33;;;;;;;4.18;2.15;;;16.60;98.40;;;;;;4860898;29;20053;-51
2023/07/26 08:14:00;;;;;;;3.28;2.05;;;16.70;97.80;;;;;;4860976;29;20046;-49
2023/07/26 08:16:27;;;;;;;3.63;2.40;;;16.70;97.30;;;;;;4860658;29;20041;-49
2023/07/26 08:18:54;;;;;;;4.80;1.98;;;16.80;97.20;;;;;;4860698;29;20120;-49
2023/07/26 08:21:21;;;;;;;3.13;2.15;;;16.80;97.20;;;;;;4860591;29;20054;-51
2023/07/26 08:23:48;;;;;;;3.22;2.20;;;16.90;97.00;;;;;;4860585;29;20375;-54
2023/07/26 08:26:15;;;;;;;3.10;2.08;;;16.90;97.00;;;;;;4860810;29;20049;-52
2023/07/26 08:28:42;;;;;;;3.65;2.00;;;17.00;96.80;;;;;;4860399;29;20048;-49
2023/07/26 08:31:09;;;;;;;4.95;2.25;;;17.20;96.80;;;;;;4864332;29;20053;-49
2023/07/26 08:33:35;;;;;;;6.57;2.53;;;17.20;96.30;;;;;;4863760;29;20055;-54
2023/07/26 08:36:02;;;;;;;14.80;2.88;;;17.30;96.60;;;;;;4864056;29;20420;-49
2023/07/26 08:38:29;;;;;;;3.38;2.15;;;17.50;96.40;;;;;;4863827;29;20131;-47
2023/07/26 08:40:56;;;;;;;4.85;2.47;;;17.60;96.20;;;;;;4863710;29;20068;-48
2023/07/26 08:43:23;;;;;;;4.43;2.08;;;17.70;96.20;;;;;;4863753;29;20077;-53
2023/07/26 08:45:49;;;;;;;4.20;2.55;;;17.90;96.00;;;;;;4861774;29;20048;-49
2023/07/26 08:48:20;;;;;;;3.20;2.20;;;17.90;95.60;;;;;;4860578;29;20057;-50
2023/07/26 08:50:47;;;;;;;4.10;2.33;;;18.00;95.60;;;;;;4863727;29;20049;-51
2023/07/26 08:53:14;;;;;;;5.70;2.30;;;18.00;95.40;;;;;;4846813;29;20061;-48
2023/07/26 08:55:41;;;;;;;3.28;2.17;;;18.00;95.30;;;;;;4863677;29;20041;-48
2023/07/26 08:58:08;;;;;;;4.70;2.10;;;18.00;95.40;;;;;;4862261;29;20061;-48
2023/07/26 09:00:34;;;;;;;3.13;2.10;;;18.00;95.30;;;;;;4863187;29;20482;-49
2023/07/26 09:03:01;;;;;;;4.65;2.10;;;18.00;95.40;;;;;;4863182;29;20046;-51
2023/07/26 09:05:28;;;;;;;4.22;2.58;;;18.00;95.20;;;;;;4863131;29;20042;-50
2023/07/26 09:07:55;;;;;;;4.10;2.08;;;17.90;94.80;;;;;;4862634;29;20068;-52
2023/07/26 09:10:22;;;;;;;4.57;2.40;;;18.00;94.70;;;;;;4863429;29;20102;-55
2023/07/26 09:12:49;;;;;;;3.60;2.10;;;18.00;94.90;;;;;;4863299;29;20124;-51
2023/07/26 09:15:15;;;;;;;3.78;2.25;;;18.10;95.00;;;;;;4863092;29;20046;-50
2023/07/26 09:17:43;;;;;;;5.75;2.38;;;18.30;95.60;;;;;;4863118;29;20532;-52
2023/07/26 09:20:11;;;;;;;4.78;2.50;;;18.40;94.80;;;;;;4863050;29;20057;-51
2023/07/26 09:22:40;;;;;;;3.60;2.72;;;18.50;94.00;;;;;;4863142;29;20069;-50
2023/07/26 09:25:07;;;;;;;3.78;2.53;;;18.60;93.80;;;;;;4862787;29;20052;-55
2023/07/26 09:27:34;;;;;;;3.88;2.40;;;18.70;92.60;;;;;;4861781;29;20133;-53
2023/07/26 09:30:00;;;;;;;5.07;2.60;;;18.80;92.50;;;;;;4862814;29;20053;-49
2023/07/26 09:32:28;;;;;;;3.55;2.63;;;18.80;92.40;;;;;;4862966;29;20097;-53
2023/07/26 09:34:55;;;;;;;4.40;3.17;;;19.00;91.40;;;;;;4861967;29;20117;-52
2023/07/26 09:37:22;;;;;;;12.02;3.42;;;19.00;90.60;;;;;;4862893;29;20050;-54
2023/07/26 09:39:49;;;;;;;6.93;3.35;;;19.00;91.30;;;;;;4862574;29;20042;-50
2023/07/26 09:42:16;;;;;;;6.38;2.72;;;19.10;91.50;;;;;;4862104;29;20050;-51
2023/07/26 09:44:42;;;;;;;4.32;2.92;;;19.20;91.30;;;;;;4862504;29;20550;-50
2023/07/26 09:47:09;;;;;;;4.78;2.85;;;19.30;91.40;;;;;;4862805;29;20045;-54
2023/07/26 09:49:36;;;;;;;3.70;2.80;;;19.40;91.00;;;;;;4862498;29;20473;-53
2023/07/26 09:52:10;;;;;;;4.15;3.00;;;19.50;90.70;;;;;;4862381;29;20140;-49
2023/07/26 09:54:40;;;;;;;5.63;3.50;;;19.70;90.90;;;;;;4862537;29;20053;-55
2023/07/26 09:57:08;;;;;;;6.55;3.20;;;19.80;90.40;;;;;;4861198;29;20045;-54
2023/07/26 09:59:39;;;;;;;4.90;3.35;;;19.70;90.00;;;;;;4862441;29;20049;-55
2023/07/26 10:02:07;;;;;;;5.43;3.45;;;19.70;90.30;;;;;;4862407;29;20046;-51
2023/07/26 10:04:35;;;;;;;5.72;3.55;;;19.80;91.00;;;;;;4862247;29;20401;-51
2023/07/26 10:07:01;;;;;;;6.20;3.60;;;19.80;90.10;;;;;;4861808;29;20443;-52
2023/07/26 10:09:28;;;;;;;7.65;3.63;;;19.90;90.40;;;;;;4862223;29;20049;-55
2023/07/26 10:11:55;;;;;;;4.90;3.22;;;19.80;92.40;;;;;;4862140;29;20489;-50
2023/07/26 10:14:22;;;;;;;4.40;3.30;;;19.50;93.20;;;;;;4862128;29;20052;-48
2023/07/26 10:16:49;;;;;;;5.53;3.63;;;19.20;93.60;;;;;;4861947;29;20042;-51
2023/07/26 10:19:16;;;;;;;5.63;3.83;;;18.90;93.40;;;;;;4861868;29;20042;-52
2023/07/26 10:21:43;;;;;;;5.72;3.10;;;18.80;93.70;;;;;;4861964;29;20049;-51
2023/07/26 10:24:10;;;;;;;15.40;3.75;;;18.60;91.80;;;;;;4861407;29;20041;-52
2023/07/26 10:26:36;;;;;;;6.03;3.78;;;18.40;92.10;;;;;;4861946;29;20109;-51
2023/07/26 10:29:03;;;;;;;5.82;3.60;;;18.30;90.40;;;;;;4861995;29;20057;-51
2023/07/26 10:31:30;;;;;;;4.18;3.25;;;18.20;90.50;;;;;;4861945;29;20183;-52
2023/07/26 10:33:57;;;;;;;4.25;3.22;;;18.20;91.90;;;;;;4862162;29;20106;-51
2023/07/26 10:36:24;;;;;;;6.05;3.47;;;18.30;92.70;;;;;;4861745;29;20042;-49
2023/07/26 10:38:52;;;;;;;4.05;3.08;;;18.40;92.50;;;;;;4861681;29;20057;-48
2023/07/26 10:41:18;;;;;;;6.70;2.95;;;18.70;90.70;;;;;;4861779;29;20060;-50
2023/07/26 10:43:47;;;;;;;4.57;3.25;;;18.80;90.50;;;;;;4861819;29;20045;-52
2023/07/26 10:46:14;;;;;;;4.72;3.13;;;18.80;90.50;;;;;;4861586;29;20125;-51
2023/07/26 10:48:41;;;;;;;13.18;3.75;;;18.90;91.00;;;;;;4861548;29;20042;-51
2023/07/26 10:51:08;;;;;;;5.35;3.50;;;19.10;90.40;;;;;;4861516;29;20098;-52
2023/07/26 10:53:36;;;;;;;5.22;3.30;;;19.30;90.60;;;;;;4861253;29;20128;-52
2023/07/26 10:56:03;;;;;;;4.60;3.28;;;19.40;89.50;;;;;;4861599;29;20052;-53
2023/07/26 10:58:30;;;;;;;5.13;3.80;;;19.60;90.10;;;;;;4844889;29;20098;-54
2023/07/26 11:00:57;;;;;;;4.45;3.20;;;19.70;90.20;;;;;;4860272;29;20481;-55
2023/07/26 11:03:23;;;;;;;3.97;3.20;;;19.80;87.70;;;;;;4861197;29;20050;-52
2023/07/26 11:05:50;;;;;;;5.55;3.70;;;19.90;88.60;;;;;;4861262;29;20048;-52
2023/07/26 11:08:18;;;;;;;4.20;3.30;;;20.00;87.20;;;;;;4860895;29;20037;-53
2023/07/26 11:10:45;;;;;;;5.07;3.25;;;20.00;86.10;;;;;;4861515;29;20101;-51
2023/07/26 11:13:11;;;;;;;6.03;4.25;;;20.10;86.80;;;;;;4861160;29;20073;-54
2023/07/26 11:15:38;;;;;;;4.80;3.33;;;20.10;88.00;;;;;;4861606;29;20164;-50
2023/07/26 11:18:25;;;;;;;4.38;3.10;;;20.20;85.20;;;;;;4861086;29;20081;-55
2023/07/26 11:20:52;;;;;;;6.55;3.55;;;20.30;86.50;;;;;;4861216;29;20068;-56
2023/07/26 11:23:19;;;;;;;4.30;3.10;;;20.40;85.10;;;;;;4860246;29;20501;-48
2023/07/26 11:25:46;;;;;;;4.97;3.40;;;20.50;86.90;;;;;;4859890;29;20048;-50
2023/07/26 11:28:12;;;;;;;5.88;3.38;;;20.60;86.50;;;;;;4860831;29;20405;-50
2023/07/26 11:30:39;;;;;;;4.05;3.30;;;20.50;83.90;;;;;;4860838;29;20098;-53
2023/07/26 11:33:06;;;;;;;5.60;3.30;;;20.40;85.60;;;;;;4861039;29;20038;-53
2023/07/26 11:35:33;;;;;;;4.75;2.67;;;20.40;83.60;;;;;;4861147;29;20401;-53
2023/07/26 11:38:00;;;;;;;5.20;2.88;;;20.60;82.60;;;;;;4860650;29;20041;-50
2023/07/26 11:40:27;;;;;;;9.15;2.97;;;20.60;81.80;;;;;;4859740;29;20113;-50
2023/07/26 11:42:53;;;;;;;3.72;2.60;;;20.70;83.20;;;;;;4861027;29;20077;-52
2023/07/26 11:45:20;;;;;;;4.03;2.92;;;20.80;82.40;;;;;;4860828;29;20391;-52
2023/07/26 11:47:47;;;;;;;5.03;3.50;;;20.80;82.50;;;;;;4860855;29;20069;-53
2023/07/26 11:50:14;;;;;;;3.95;2.80;;;20.80;82.70;;;;;;4860617;29;20489;-50
2023/07/26 11:52:41;;;;;;;4.45;3.42;;;20.80;82.70;;;;;;4860782;29;20137;-50
2023/07/26 11:55:08;;;;;;;4.30;3.20;;;20.80;83.80;;;;;;4860846;29;20048;-53
2023/07/26 11:57:35;;;;;;;8.45;3.92;;;21.00;82.50;;;;;;4860797;29;20085;-52
2023/07/26 12:00:03;;;;;;;5.40;3.67;;;21.10;84.60;;;;;;4860629;29;20500;-53
2023/07/26 12:02:38;;;;;;;5.40;3.67;;;21.10;84.30;;;;;;4860682;29;20049;-53
2023/07/26 12:05:05;;;;;;;7.78;3.55;;;21.20;84.90;;;;;;4861674;29;20041;-52
2023/07/26 12:07:32;;;;;;;4.85;3.70;;;21.20;84.30;;;;;;4863934;29;20120;-54
2023/07/26 12:09:59;;;;;;;5.80;3.75;;;21.20;86.00;;;;;;4863988;29;20056;-51
2023/07/26 12:12:26;;;;;;;4.78;3.60;;;21.20;85.60;;;;;;4864042;29;20041;-53
2023/07/26 12:14:53;;;;;;;4.55;3.53;;;21.20;85.90;;;;;;4864200;29;20053;-52
2023/07/26 12:17:20;;;;;;;4.55;3.22;;;21.30;86.60;;;;;;4864170;29;20499;-51
2023/07/26 12:19:47;;;;;;;3.58;3.00;;;21.40;85.10;;;;;;4863942;29;20133;-51
2023/07/26 12:22:13;;;;;;;4.53;3.33;;;21.50;84.80;;;;;;4864234;29;20053;-51
2023/07/26 12:24:40;;;;;;;4.43;3.05;;;21.60;84.20;;;;;;4864072;29;20094;-50
2023/07/26 12:27:07;;;;;;;4.18;2.85;;;21.70;84.10;;;;;;4864033;29;20108;-50
2023/07/26 12:29:38;;;;;;;6.75;3.50;;;21.90;84.90;;;;;;4863934;29;20136;-55
2023/07/26 12:32:05;;;;;;;4.65;3.42;;;22.10;85.60;;;;;;4863012;29;20042;-55
2023/07/26 12:34:33;;;;;;;5.15;3.10;;;22.40;82.50;;;;;;4864064;29;20045;-51
2023/07/26 12:37:00;;;;;;;5.30;3.35;;;22.60;81.90;;;;;;4863866;29;20050;-53
2023/07/26 12:39:27;;;;;;;3.83;2.70;;;22.80;82.60;;;;;;4863724;29;20090;-50
2023/07/26 12:41:54;;;;;;;5.07;3.40;;;22.90;80.60;;;;;;4863793;29;20069;-54
2023/07/26 12:44:20;;;;;;;4.03;3.00;;;22.90;81.00;;;;;;4863463;29;20049;-54